Time;durP1;ratioP1;P1;durP2;ratioP2;P2;SDS_P1;SDS_P2;PMS_P1;PMS_P2;Temp;Humidity;BMP_temperature;BMP_pressure;BME280_temperature;BME280_humidity;BME280_pressure;Samples;Min_cycle;Max_cycle;Signal;HPM_P1;HPM_P2
2021/08/19 00:04:07;;;;;;;2.60;2.03;;;;;;;14.34;64.64;99085.11;529027;1089;117253;-64
2021/08/19 00:14:14;;;;;;;5.10;2.20;;;;;;;14.12;64.98;99079.06;531762;1088;116520;-64
2021/08/19 00:24:20;;;;;;;2.50;1.77;;;;;;;14.01;65.43;99072.91;532588;1089;117159;-64
2021/08/19 00:34:26;;;;;;;2.53;1.87;;;;;;;13.81;65.99;99081.74;532587;1088;116548;-64
2021/08/19 00:44:33;;;;;;;2.70;1.93;;;;;;;13.64;66.59;99080.55;526402;1089;116426;-64
2021/08/19 00:54:41;;;;;;;4.90;2.47;;;;;;;13.76;66.96;99070.73;529116;1088;117162;-64
2021/08/19 01:04:47;;;;;;;3.40;1.90;;;;;;;13.93;67.24;99078.04;531800;1087;115599;-64
2021/08/19 01:14:54;;;;;;;3.23;2.63;;;;;;;14.04;67.49;99071.00;530799;1088;116772;-64
2021/08/19 01:25:01;;;;;;;2.03;1.90;;;;;;;14.17;67.49;99071.59;532559;1089;116632;-64
2021/08/19 01:35:08;;;;;;;2.27;1.93;;;;;;;14.26;67.79;99085.78;531847;1088;117605;-64
2021/08/19 01:45:18;;;;;;;3.07;1.73;;;;;;;14.22;67.69;99079.93;518408;1088;117083;-63
2021/08/19 01:55:25;;;;;;;2.80;2.33;;;;;;;14.12;68.07;99071.99;532636;1089;117033;-64
2021/08/19 02:05:32;;;;;;;2.53;1.70;;;;;;;14.10;68.35;99078.37;531851;1088;116691;-64
2021/08/19 02:15:38;;;;;;;2.90;2.07;;;;;;;14.11;68.42;99077.39;532577;1088;116294;-64
2021/08/19 02:25:45;;;;;;;1.63;1.50;;;;;;;14.16;68.46;99077.84;531815;1089;117602;-64
2021/08/19 02:35:51;;;;;;;3.37;2.20;;;;;;;14.01;68.56;99074.73;532535;1090;116153;-64
2021/08/19 02:45:58;;;;;;;4.03;1.80;;;;;;;13.85;68.91;99078.71;532479;1089;116573;-65
2021/08/19 02:56:06;;;;;;;2.60;1.63;;;;;;;13.77;69.08;99080.31;531834;1088;117472;-66
2021/08/19 03:06:11;;;;;;;;;;;;;;;13.64;69.33;99073.45;532580;1089;116531;-65
2021/08/19 03:16:19;;;;;;;4.17;1.90;;;;;;;13.66;69.66;99070.69;532882;1088;155406;-64
2021/08/19 03:26:27;;;;;;;2.70;1.63;;;;;;;13.67;69.54;99083.73;531889;1090;116726;-64
2021/08/19 03:36:33;;;;;;;3.57;2.53;;;;;;;13.72;69.47;99071.00;532712;1088;115838;-64
2021/08/19 03:46:40;;;;;;;2.37;2.17;;;;;;;13.81;69.64;99068.55;531834;1088;117921;-64
2021/08/19 03:56:47;;;;;;;6.80;2.57;;;;;;;13.89;69.58;99073.98;532620;1088;117123;-64
2021/08/19 04:06:53;;;;;;;10.23;2.57;;;;;;;14.07;69.39;99074.19;532611;1089;116292;-64
2021/08/19 04:17:00;;;;;;;3.77;2.20;;;;;;;14.37;69.20;99061.06;531880;1089;116778;-65
2021/08/19 04:27:07;;;;;;;4.93;1.70;;;;;;;14.69;68.93;99058.20;532414;1089;116591;-64
2021/08/19 04:37:13;;;;;;;2.37;2.17;;;;;;;14.85;68.49;99064.77;532526;1090;117063;-64
2021/08/19 04:47:20;;;;;;;2.43;2.23;;;;;;;14.99;67.97;99066.98;531682;1090;116400;-64
2021/08/19 04:57:26;;;;;;;2.10;1.93;;;;;;;15.51;67.83;99070.25;532453;1089;116522;-66
2021/08/19 05:07:32;;;;;;;2.70;1.90;;;;;;;16.46;66.50;99069.32;532619;1087;115724;-66
2021/08/19 05:17:39;;;;;;;2.90;2.57;;;;;;;17.18;64.83;99071.98;527606;1089;116686;-65
2021/08/19 05:27:46;;;;;;;2.53;2.00;;;;;;;17.23;64.28;99077.68;514525;1089;116645;-65
2021/08/19 05:37:52;;;;;;;5.07;2.47;;;;;;;17.18;63.73;99074.64;513940;1088;116594;-65
2021/08/19 05:47:58;;;;;;;2.60;2.40;;;;;;;17.32;63.80;99075.91;514399;1088;116647;-64
2021/08/19 05:58:05;;;;;;;2.40;1.87;;;;;;;18.01;62.55;99067.20;529690;1089;117713;-68
2021/08/19 06:08:11;;;;;;;4.97;2.33;;;;;;;22.25;59.36;99053.75;531857;1089;116752;-67
2021/08/19 06:18:18;;;;;;;2.63;1.90;;;;;;;26.76;54.48;99069.50;532590;1089;116659;-68
2021/08/19 06:28:25;;;;;;;7.40;2.73;;;;;;;33.92;42.99;99042.45;532572;1087;116343;-68
2021/08/19 06:38:31;;;;;;;2.00;1.55;;;;;;;31.48;41.09;99053.81;531879;1087;116385;-68
2021/08/19 06:48:38;;;;;;;3.70;1.55;;;;;;;28.48;40.99;99062.01;532551;1087;116852;-68
2021/08/19 06:58:45;;;;;;;4.17;2.13;;;;;;;26.99;42.42;99054.66;531771;1089;116616;-66
2021/08/19 07:08:49;;;;;;;;;;;;;;;34.85;38.77;99045.38;521501;1088;116725;-66
2021/08/19 07:18:56;;;;;;;1.48;1.05;;;;;;;33.76;34.22;99019.79;529784;1089;103355;-65
2021/08/19 07:29:02;;;;;;;4.35;2.00;;;;;;;33.59;33.50;99037.16;527845;1087;116564;-62
2021/08/19 07:39:09;;;;;;;1.63;1.50;;;;;;;34.08;33.67;99037.91;532601;1087;116085;-63
2021/08/19 07:49:17;;;;;;;4.67;1.90;;;;;;;36.12;29.45;99034.70;532575;1088;116006;-63
2021/08/19 07:59:23;;;;;;;3.20;1.80;;;;;;;32.23;31.74;99033.56;531884;1089;116382;-62
2021/08/19 08:09:30;;;;;;;17.23;3.20;;;;;;;29.42;34.17;99036.20;532591;1089;117339;-63
2021/08/19 08:19:37;;;;;;;6.17;2.87;;;;;;;27.55;36.55;99044.83;531866;1088;116809;-62
2021/08/19 08:29:44;;;;;;;1.97;1.87;;;;;;;26.01;39.34;99050.19;532568;1087;117222;-62
2021/08/19 08:39:51;;;;;;;3.73;3.23;;;;;;;26.35;39.44;99046.55;532594;1088;116419;-62
2021/08/19 08:49:57;;;;;;;2.47;2.33;;;;;;;25.80;40.85;99050.46;531944;1087;116294;-63
2021/08/19 09:00:04;;;;;;;2.63;2.43;;;;;;;24.73;41.63;99046.78;532577;1088;117339;-62
2021/08/19 09:10:14;;;;;;;2.30;2.18;;;;;;;24.30;42.53;99053.30;532565;1087;117560;-71
2021/08/19 09:20:22;;;;;;;4.83;2.87;;;;;;;24.71;43.42;99046.16;531822;1087;117212;-69
2021/08/19 09:30:31;;;;;;;5.40;2.73;;;;;;;24.81;42.66;99045.78;532570;1087;117302;-63
2021/08/19 09:40:37;;;;;;;18.20;4.13;;;;;;;24.61;42.81;99057.30;531806;1088;117046;-63
2021/08/19 09:50:45;;;;;;;5.57;3.10;;;;;;;24.26;42.63;99057.42;532566;1089;116851;-66
2021/08/19 10:00:51;;;;;;;3.43;3.05;;;;;;;24.36;43.46;99055.19;532093;1087;116673;-64
2021/08/19 10:11:00;;;;;;;4.20;2.17;;;;;;;25.00;42.10;99050.34;531811;1088;117725;-63
2021/08/19 10:21:13;;;;;;;7.50;3.40;;;;;;;24.94;41.76;99053.03;532599;1087;117237;-66
2021/08/19 10:31:50;;;;;;;3.47;2.40;;;;;;;23.88;41.92;99070.20;531829;1089;116716;-66
2021/08/19 10:41:57;;;;;;;11.10;2.93;;;;;;;22.49;43.85;99083.06;503985;1088;10001569;-69
2021/08/19 10:52:31;;;;;;;4.00;2.80;;;;;;;21.75;45.11;99092.80;532483;1090;117590;-69
2021/08/19 11:02:42;;;;;;;2.57;2.37;;;;;;;22.02;46.01;99088.65;532542;1087;116342;-69
2021/08/19 11:12:51;;;;;;;3.87;2.30;;;;;;;23.40;45.00;99081.67;526733;1088;116120;-68
2021/08/19 11:23:10;;;;;;;2.88;2.48;;;;;;;23.08;44.39;99091.88;529388;1088;116828;-67
2021/08/19 11:33:19;;;;;;;9.33;2.90;;;;;;;21.78;45.96;99093.27;515371;1088;116886;-67
2021/08/19 11:43:28;;;;;;;3.80;3.40;;;;;;;21.41;47.14;99105.59;532587;1088;116445;-69
2021/08/19 11:53:34;;;;;;;5.90;2.93;;;;;;;22.25;47.31;99101.07;532566;1087;116390;-68
2021/08/19 12:03:43;;;;;;;5.70;3.45;;;;;;;23.56;45.17;99085.91;520159;1089;117210;-67
2021/08/19 12:13:50;;;;;;;4.65;3.75;;;;;;;23.84;44.60;99071.63;522579;1090;116685;-68
2021/08/19 12:24:10;;;;;;;4.98;2.58;;;;;;;22.95;43.75;99101.45;516544;1088;116420;-68
2021/08/19 12:34:16;;;;;;;2.87;2.27;;;;;;;21.74;44.92;99117.86;524545;1088;116750;-68
2021/08/19 12:44:24;;;;;;;3.73;3.10;;;;;;;20.86;46.12;99121.73;518847;1088;115772;-68
2021/08/19 12:54:30;;;;;;;4.23;2.68;;;;;;;20.47;47.72;99122.58;528859;1089;116512;-68
2021/08/19 13:04:38;;;;;;;8.10;3.37;;;;;;;20.41;48.22;99124.09;531883;1088;117300;-67
2021/08/19 13:14:44;;;;;;;8.18;3.33;;;;;;;20.47;48.47;99133.23;532552;1087;116706;-68
2021/08/19 13:24:52;;;;;;;4.10;3.00;;;;;;;20.82;48.70;99133.74;517688;1088;116619;-66
2021/08/19 13:34:58;;;;;;;3.60;3.30;;;;;;;21.41;48.39;99134.97;525490;1089;116953;-67
2021/08/19 13:45:06;;;;;;;3.17;2.87;;;;;;;21.90;47.62;99120.34;519078;1088;116378;-68
2021/08/19 13:55:13;;;;;;;5.35;2.88;;;;;;;22.04;47.52;99125.87;532582;1088;117859;-61
2021/08/19 14:05:21;;;;;;;5.10;2.50;;;;;;;22.10;47.33;99117.97;531869;1089;116392;-63
2021/08/19 14:15:27;;;;;;;4.03;2.13;;;;;;;22.33;46.81;99121.52;532559;1088;117084;-69
2021/08/19 14:25:36;;;;;;;4.07;2.60;;;;;;;22.03;46.76;99122.38;532086;1088;116953;-66
2021/08/19 14:35:43;;;;;;;3.35;2.23;;;;;;;21.92;47.11;99126.33;532574;1089;116313;-69
2021/08/19 14:45:50;;;;;;;3.77;2.80;;;;;;;21.78;47.58;99119.14;532535;1087;116406;-70
2021/08/19 14:55:58;;;;;;;3.57;2.47;;;;;;;21.62;47.88;99131.63;531871;1088;117668;-67
2021/08/19 15:06:07;;;;;;;2.70;2.50;;;;;;;21.81;47.92;99121.44;514536;1088;10001513;-63
2021/08/19 15:16:13;;;;;;;2.77;2.57;;;;;;;21.91;47.75;99127.34;522408;1088;116980;-64
2021/08/19 15:26:19;;;;;;;5.43;3.37;;;;;;;21.85;47.81;99138.78;531304;1088;116175;-63
2021/08/19 15:36:26;;;;;;;4.73;3.80;;;;;;;21.83;47.66;99138.95;532538;1088;117204;-64
2021/08/19 15:46:33;;;;;;;8.13;3.97;;;;;;;21.37;47.54;99139.87;517015;1088;116581;-61
2021/08/19 15:56:39;;;;;;;4.07;3.40;;;;;;;21.05;48.35;99148.94;523580;1090;117024;-64
2021/08/19 16:06:46;;;;;;;4.73;4.30;;;;;;;20.97;48.47;99155.17;529860;1088;116741;-62
2021/08/19 16:16:53;;;;;;;5.57;4.03;;;;;;;20.79;48.97;99164.27;519191;1089;116026;-63
2021/08/19 16:26:59;;;;;;;6.20;3.90;;;;;;;20.65;49.21;99168.50;530795;1088;169851;-65
2021/08/19 16:37:08;;;;;;;5.30;4.00;;;;;;;20.42;50.03;99171.09;514094;1088;116180;-63
2021/08/19 16:47:14;;;;;;;5.47;3.93;;;;;;;20.29;50.75;99185.80;520756;1089;116633;-63
2021/08/19 16:57:21;;;;;;;11.03;4.20;;;;;;;20.14;51.17;99196.36;532553;1088;116370;-59
2021/08/19 17:07:27;;;;;;;3.87;3.43;;;;;;;19.95;51.53;99202.05;526085;1087;117251;-63
2021/08/19 17:17:34;;;;;;;6.03;4.67;;;;;;;19.73;52.15;99202.52;514374;1088;116933;-63
2021/08/19 17:27:41;;;;;;;4.90;3.40;;;;;;;19.42;52.40;99194.38;514456;1089;116578;-62
2021/08/19 17:37:48;;;;;;;3.57;3.27;;;;;;;19.19;53.00;99208.33;528624;1088;116568;-60
2021/08/19 17:47:55;;;;;;;4.73;4.33;;;;;;;18.93;53.89;99203.92;517048;1088;116488;-65
2021/08/19 17:58:01;;;;;;;4.27;3.87;;;;;;;18.70;54.53;99212.49;523271;1088;116354;-62
2021/08/19 18:08:08;;;;;;;5.60;4.20;;;;;;;18.59;54.96;99220.76;525523;1088;117185;-64
2021/08/19 18:18:15;;;;;;;5.83;3.80;;;;;;;18.52;55.33;99239.17;531218;1087;116713;-60
2021/08/19 18:28:22;;;;;;;9.57;4.20;;;;;;;18.44;55.61;99245.28;515423;1088;116707;-64
2021/08/19 18:38:28;;;;;;;6.30;5.70;;;;;;;18.40;56.21;99246.58;520846;1089;118066;-64
2021/08/19 18:48:36;;;;;;;6.33;3.93;;;;;;;18.37;56.35;99262.84;518217;1088;117355;-64
2021/08/19 18:58:43;;;;;;;3.65;3.35;;;;;;;18.31;56.64;99266.14;531710;1087;117597;-63
2021/08/19 19:08:49;;;;;;;5.00;4.50;;;;;;;18.30;57.05;99267.14;532532;1087;116865;-63
2021/08/19 19:18:55;;;;;;;3.53;3.30;;;;;;;18.25;57.30;99274.73;532588;1088;116415;-63
2021/08/19 19:29:02;;;;;;;5.10;4.63;;;;;;;18.14;57.90;99284.63;531929;1087;116644;-63
2021/08/19 19:39:09;;;;;;;4.00;3.30;;;;;;;18.02;58.15;99291.98;517454;1089;117265;-64
2021/08/19 19:49:15;;;;;;;4.70;4.30;;;;;;;17.92;59.19;99300.03;527686;1088;116556;-64
2021/08/19 19:59:22;;;;;;;5.03;4.47;;;;;;;17.86;60.28;99300.66;531829;1088;116530;-62
2021/08/19 20:09:29;;;;;;;5.70;5.20;;;;;;;17.74;61.21;99308.00;532522;1089;117057;-62
2021/08/19 20:19:36;;;;;;;6.50;5.07;;;;;;;17.68;61.44;99313.09;531796;1088;118038;-62
2021/08/19 20:29:42;;;;;;;7.30;5.37;;;;;;;17.67;61.58;99309.61;532554;1088;117225;-62
2021/08/19 20:39:49;;;;;;;6.40;4.83;;;;;;;17.68;62.13;99313.09;532532;1087;173498;-63
2021/08/19 20:49:56;;;;;;;5.13;4.63;;;;;;;17.44;62.38;99309.20;531810;1088;116423;-64
2021/08/19 21:00:02;;;;;;;7.17;5.43;;;;;;;17.00;63.06;99321.31;532545;1088;150722;-63
2021/08/19 21:10:11;;;;;;;5.10;4.70;;;;;;;16.70;63.85;99322.38;532598;1088;117301;-63
2021/08/19 21:20:17;;;;;;;7.00;4.70;;;;;;;16.42;64.38;99340.88;531835;1089;116582;-63
2021/08/19 21:30:24;;;;;;;8.77;4.80;;;;;;;16.05;65.14;99345.09;532559;1088;116154;-63
2021/08/19 21:40:31;;;;;;;5.93;4.93;;;;;;;15.70;65.72;99357.88;531006;1087;116523;-63
2021/08/19 21:50:39;;;;;;;5.47;4.50;;;;;;;15.35;66.48;99356.52;532392;1088;116781;-63
2021/08/19 22:00:46;;;;;;;6.40;5.73;;;;;;;15.07;66.99;99369.52;532484;1088;118703;-62
2021/08/19 22:10:54;;;;;;;4.85;4.45;;;;;;;14.84;67.60;99372.34;531777;1089;116458;-65
2021/08/19 22:21:00;;;;;;;6.20;5.60;;;;;;;14.61;67.98;99364.53;532568;1087;116632;-65
2021/08/19 22:31:08;;;;;;;7.73;5.33;;;;;;;14.41;68.40;99366.23;532414;1089;117462;-63
2021/08/19 22:41:15;;;;;;;7.27;6.57;;;;;;;14.21;68.75;99368.72;531821;1089;117143;-63
2021/08/19 22:51:23;;;;;;;8.50;6.28;;;;;;;14.06;68.87;99370.00;532597;1089;116800;-62
2021/08/19 23:01:29;;;;;;;6.67;6.07;;;;;;;13.87;69.16;99379.41;532540;1088;116285;-59
2021/08/19 23:11:36;;;;;;;6.67;5.90;;;;;;;13.71;69.47;99387.73;532464;1088;117510;-62
2021/08/19 23:21:43;;;;;;;5.90;5.40;;;;;;;13.58;69.89;99393.17;532464;1089;116977;-63
2021/08/19 23:31:49;;;;;;;7.83;6.70;;;;;;;13.40;70.02;99398.08;531813;1087;116316;-65
2021/08/19 23:41:56;;;;;;;6.70;6.00;;;;;;;13.28;70.29;99410.41;532572;1087;116822;-63
2021/08/19 23:52:02;;;;;;;7.67;6.83;;;;;;;13.03;70.58;99415.79;532623;1088;116292;-62
